Terminal Aerodrome Forecast
Issued by NWS

Home | Current Version | Previous Version | Text Only | Print | Product List | Glossary On
Versions: 1 2 3 4 5 6 7 8 9 10 11 12 13 14 15 16 17 18
710
FTUS44 KLIX 242336
TAFGPT
TAF
KGPT 242336Z 2500/2524 29007KT P6SM VCSH SCT050 BKN130
     FM250600 26004KT P6SM VCTS FEW050CB BKN150
     FM250900 27005KT P6SM SCT040 BKN140 PROB30 2509/2512 4SM TSRA
      BKN040CB
     FM251200 29006KT 5SM -SHRA VCTS SCT040CB BKN120
     FM251600 30007KT 5SM SHRA VCTS BKN045CB BKN120=

USA.gov is the U.S. government's official web portal to all federal, state and local government web resources and services.